Time;durP1;ratioP1;P1;durP2;ratioP2;P2;SDS_P1;SDS_P2;PMS_P1;PMS_P2;Temp;Humidity;BMP_temperature;BMP_pressure;BME280_temperature;BME280_humidity;BME280_pressure;Samples;Min_cycle;Max_cycle;Signal;HPM_P1;HPM_P2
2022/08/03 00:01:57;;;;;;;5.15;4.65;;;29.40;99.90;;;;;;4991852;28;20042;-51
2022/08/03 00:04:23;;;;;;;11.32;4.55;;;29.30;99.90;;;;;;4991950;28;20041;-51
2022/08/03 00:06:49;;;;;;;6.70;5.20;;;29.30;99.90;;;;;;4991741;28;20106;-50
2022/08/03 00:09:15;;;;;;;10.10;5.40;;;29.30;99.90;;;;;;4991804;28;20395;-51
2022/08/03 00:11:41;;;;;;;8.10;5.50;;;29.20;99.90;;;;;;4991878;28;20014;-52
2022/08/03 00:14:07;;;;;;;5.97;5.45;;;29.10;99.90;;;;;;4991809;28;20030;-51
2022/08/03 00:16:34;;;;;;;9.18;6.10;;;29.10;99.90;;;;;;4991709;28;20022;-51
2022/08/03 00:19:00;;;;;;;6.88;5.05;;;29.10;99.90;;;;;;4991637;28;20034;-51
2022/08/03 00:21:26;;;;;;;8.40;5.50;;;29.10;99.90;;;;;;4991656;28;20622;-50
2022/08/03 00:23:52;;;;;;;6.72;4.68;;;29.00;99.90;;;;;;4991613;28;20101;-50
2022/08/03 00:26:18;;;;;;;4.47;3.60;;;29.00;99.90;;;;;;4991690;28;20470;-51
2022/08/03 00:28:43;;;;;;;8.98;3.88;;;28.90;99.90;;;;;;4991670;28;20474;-51
2022/08/03 00:31:09;;;;;;;6.60;3.00;;;28.90;99.90;;;;;;4991622;28;20085;-50
2022/08/03 00:33:35;;;;;;;3.65;2.58;;;28.80;99.90;;;;;;4991582;28;20037;-50
2022/08/03 00:36:01;;;;;;;6.32;2.30;;;28.80;99.90;;;;;;4991441;28;20414;-50
2022/08/03 00:38:26;;;;;;;5.90;2.38;;;28.70;99.90;;;;;;4991365;28;20041;-50
2022/08/03 00:40:52;;;;;;;4.93;2.58;;;28.70;99.90;;;;;;4991505;28;20382;-50
2022/08/03 00:43:18;;;;;;;2.90;2.00;;;28.70;99.90;;;;;;4991684;28;20109;-50
2022/08/03 00:45:44;;;;;;;10.02;2.13;;;28.60;99.90;;;;;;4991409;28;20478;-51
2022/08/03 00:48:11;;;;;;;3.78;1.48;;;28.60;99.90;;;;;;4958238;28;20036;-50
2022/08/03 00:50:42;;;;;;;5.90;1.65;;;28.60;99.90;;;;;;4991373;28;20038;-50
2022/08/03 00:53:13;;;;;;;3.38;1.33;;;28.50;99.90;;;;;;4994296;28;20094;-51
2022/08/03 00:55:40;;;;;;;7.45;1.60;;;28.40;99.90;;;;;;4995225;28;20435;-50
2022/08/03 00:58:07;;;;;;;8.30;1.50;;;28.40;99.90;;;;;;4994882;28;20514;-50
2022/08/03 01:00:37;;;;;;;3.67;1.35;;;28.40;99.90;;;;;;5041164;22;20091;-49
2022/08/03 01:03:04;;;;;;;3.08;1.23;;;28.40;99.90;;;;;;5036476;28;20025;-49
2022/08/03 01:05:37;;;;;;;4.75;1.52;;;28.30;99.90;;;;;;5054065;28;20350;-50
2022/08/03 01:08:17;;;;;;;5.78;1.63;;;28.30;99.90;;;;;;5054036;28;20100;-50
2022/08/03 01:10:56;;;;;;;3.95;1.95;;;28.30;99.90;;;;;;5054123;28;20021;-49
2022/08/03 01:13:43;;;;;;;6.60;2.08;;;28.30;99.90;;;;;;5053867;28;20043;-49
2022/08/03 01:16:40;;;;;;;8.57;2.15;;;28.30;99.90;;;;;;5053860;28;20110;-49
2022/08/03 01:19:50;;;;;;;8.25;2.20;;;28.40;99.90;;;;;;5053840;28;20041;-50
2022/08/03 01:22:25;;;;;;;3.92;2.08;;;28.40;99.90;;;;;;5050796;28;20040;-50
2022/08/03 01:25:37;;;;;;;5.82;2.00;;;28.30;99.90;;;;;;5053808;28;20389;-49
2022/08/03 01:28:22;;;;;;;2.88;1.55;;;28.30;99.90;;;;;;5053483;28;20033;-49
2022/08/03 01:30:49;;;;;;;1.92;1.73;;;28.30;99.90;;;;;;5053499;28;20025;-50
2022/08/03 01:33:20;;;;;;;2.92;1.40;;;28.20;99.90;;;;;;5053672;28;20112;-50
2022/08/03 01:36:06;;;;;;;4.75;1.67;;;28.10;99.90;;;;;;5035476;28;20029;-50
2022/08/03 01:38:34;;;;;;;6.07;2.00;;;28.20;99.90;;;;;;5053305;28;20075;-50
2022/08/03 01:41:11;;;;;;;2.88;1.98;;;28.20;99.90;;;;;;5053317;28;20067;-50
2022/08/03 01:43:41;;;;;;;3.10;1.88;;;28.10;99.90;;;;;;5053440;28;20140;-50
2022/08/03 01:46:09;;;;;;;7.28;2.20;;;28.10;99.90;;;;;;5035296;28;20047;-50
2022/08/03 01:48:38;;;;;;;3.58;2.13;;;28.10;99.90;;;;;;5035588;28;20036;-50
2022/08/03 01:51:05;;;;;;;3.65;2.17;;;28.10;99.90;;;;;;5053705;28;20028;-50
2022/08/03 01:53:32;;;;;;;4.35;1.98;;;28.00;99.90;;;;;;5052958;28;20117;-49
2022/08/03 01:56:01;;;;;;;5.68;2.15;;;28.00;99.90;;;;;;5053109;28;20026;-50
2022/08/03 01:58:28;;;;;;;3.97;2.00;;;28.00;99.90;;;;;;5053058;28;20048;-51
2022/08/03 02:00:58;;;;;;;2.70;1.92;;;28.00;99.90;;;;;;5051018;22;20144;-49
2022/08/03 02:03:24;;;;;;;4.75;1.58;;;27.90;99.90;;;;;;5031970;28;20105;-49
2022/08/03 02:05:51;;;;;;;2.53;1.50;;;27.90;99.90;;;;;;5033086;28;20021;-50
2022/08/03 02:08:18;;;;;;;3.63;1.52;;;27.90;99.90;;;;;;5033291;28;20091;-49
2022/08/03 02:10:46;;;;;;;3.83;1.67;;;27.90;99.90;;;;;;5031748;28;20179;-50
2022/08/03 02:13:13;;;;;;;4.30;1.52;;;27.90;99.90;;;;;;5032898;28;20040;-50
2022/08/03 02:15:40;;;;;;;3.87;1.50;;;27.90;99.90;;;;;;5033053;28;20025;-55
2022/08/03 02:18:09;;;;;;;7.18;1.40;;;27.90;99.90;;;;;;5032732;28;20129;-50
2022/08/03 02:20:37;;;;;;;2.15;1.35;;;27.90;99.90;;;;;;5032783;28;20385;-50
2022/08/03 02:23:05;;;;;;;2.40;1.35;;;27.90;99.90;;;;;;5032731;28;20075;-50
2022/08/03 02:25:35;;;;;;;1.40;1.23;;;27.90;99.90;;;;;;5032693;28;20033;-50
2022/08/03 02:28:15;;;;;;;1.70;1.15;;;27.90;99.90;;;;;;5032482;28;20036;-50
2022/08/03 02:30:44;;;;;;;2.38;1.40;;;27.90;99.90;;;;;;5032474;28;20041;-50
2022/08/03 02:33:29;;;;;;;3.55;2.33;;;27.80;99.90;;;;;;5032503;28;20029;-50
2022/08/03 02:35:56;;;;;;;4.22;1.70;;;27.80;99.90;;;;;;5032422;28;20052;-50
2022/08/03 02:38:24;;;;;;;;;;;27.80;99.90;;;;;;5031702;28;20040;-50
2022/08/03 02:40:54;;;;;;;3.72;1.52;;;27.80;99.90;;;;;;5032520;28;19911;-50
2022/08/03 02:43:22;;;;;;;2.22;1.40;;;27.80;99.90;;;;;;5047606;28;20033;-50
2022/08/03 02:45:50;;;;;;;1.98;1.33;;;27.80;99.90;;;;;;5031145;28;20033;-50
2022/08/03 02:48:21;;;;;;;3.10;1.30;;;27.80;99.90;;;;;;5032407;28;20354;-50
2022/08/03 02:50:48;;;;;;;2.65;1.55;;;27.80;99.90;;;;;;5032309;28;20090;-50
2022/08/03 02:53:16;;;;;;;5.05;2.45;;;27.80;99.90;;;;;;5032151;28;20030;-49
2022/08/03 02:55:45;;;;;;;3.47;1.50;;;27.80;99.90;;;;;;5032151;28;20103;-50
2022/08/03 02:58:13;;;;;;;5.63;1.35;;;27.80;99.90;;;;;;5047369;28;20098;-50
2022/08/03 03:00:40;;;;;;;1.70;1.20;;;27.80;99.90;;;;;;5032415;28;20502;-50
2022/08/03 03:03:06;;;;;;;2.83;1.50;;;27.80;99.90;;;;;;5031946;28;20473;-50
2022/08/03 03:05:33;;;;;;;3.90;2.55;;;27.80;99.90;;;;;;5031889;28;20392;-50
2022/08/03 03:07:59;;;;;;;6.10;2.27;;;27.80;99.90;;;;;;5032080;28;20033;-50
2022/08/03 03:10:25;;;;;;;2.72;2.03;;;27.80;99.90;;;;;;5047054;28;20022;-50
2022/08/03 03:12:55;;;;;;;4.05;2.10;;;27.80;99.90;;;;;;5031918;28;20022;-50
2022/08/03 03:15:23;;;;;;;3.78;2.28;;;27.80;99.90;;;;;;5031608;28;20025;-50
2022/08/03 03:17:50;;;;;;;4.93;2.55;;;27.80;99.90;;;;;;5030514;28;20025;-50
2022/08/03 03:20:17;;;;;;;5.55;2.22;;;27.80;99.90;;;;;;5031763;28;20025;-49
2022/08/03 03:22:44;;;;;;;4.35;2.40;;;27.80;99.90;;;;;;5031542;28;20057;-49
2022/08/03 03:25:10;;;;;;;4.30;2.38;;;27.80;99.90;;;;;;5031574;28;20037;-50
2022/08/03 03:27:36;;;;;;;5.13;2.88;;;27.80;99.90;;;;;;5031784;28;20153;-51
2022/08/03 03:30:03;;;;;;;5.28;2.20;;;27.80;99.90;;;;;;5031370;28;20028;-50
2022/08/03 03:32:29;;;;;;;8.75;2.40;;;27.80;99.90;;;;;;5031407;28;20072;-50
2022/08/03 03:34:58;;;;;;;5.57;2.40;;;27.90;99.90;;;;;;5031344;28;20033;-51
2022/08/03 03:37:25;;;;;;;6.45;1.60;;;28.00;99.90;;;;;;5031339;28;20481;-50
2022/08/03 03:39:52;;;;;;;;;;;28.10;99.90;;;;;;5030535;28;20037;-51
2022/08/03 03:42:18;;;;;;;;;;;28.20;99.90;;;;;;5031824;28;20351;-49
2022/08/03 03:44:44;;;;;;;2.80;1.65;;;28.30;99.90;;;;;;5031102;28;19943;-49
2022/08/03 03:47:10;;;;;;;4.57;1.80;;;28.40;99.90;;;;;;5031120;28;20125;-49
2022/08/03 03:49:36;;;;;;;2.95;1.58;;;28.40;99.90;;;;;;5031573;28;20029;-49
2022/08/03 03:52:01;;;;;;;2.20;1.70;;;28.50;99.90;;;;;;5031256;28;20021;-49
2022/08/03 03:54:42;;;;;;;5.13;1.60;;;28.60;99.90;;;;;;5031268;28;20075;-49
2022/08/03 03:57:12;;;;;;;2.75;1.50;;;28.70;99.90;;;;;;5031407;28;20021;-49
2022/08/03 03:59:38;;;;;;;2.85;1.75;;;28.70;99.90;;;;;;5030330;28;20640;-49
2022/08/03 04:02:09;;;;;;;4.28;1.27;;;28.80;99.90;;;;;;5031591;28;20104;-49
2022/08/03 04:13:09;;;;;;;1.90;1.45;;;28.90;99.90;;;;;;5031313;28;20063;-49
2022/08/03 04:15:40;;;;;;;3.85;1.50;;;29.00;99.90;;;;;;5031137;28;20366;-49
2022/08/03 04:18:10;;;;;;;3.20;1.40;;;29.10;99.90;;;;;;5030954;28;20436;-49
2022/08/03 04:20:39;;;;;;;4.20;1.40;;;29.10;99.90;;;;;;5031253;28;20535;-49
2022/08/03 04:23:06;;;;;;;2.25;1.10;;;29.10;99.90;;;;;;5031048;28;20079;-50
2022/08/03 04:25:34;;;;;;;3.80;1.08;;;29.10;99.90;;;;;;5031091;28;20022;-49
2022/08/03 04:28:01;;;;;;;2.00;1.50;;;29.10;99.90;;;;;;5033746;28;20064;-49
2022/08/03 04:30:27;;;;;;;;;;;29.20;99.90;;;;;;5035172;28;20431;-49
2022/08/03 04:32:56;;;;;;;5.18;1.80;;;29.20;99.90;;;;;;5034780;28;19944;-49
2022/08/03 04:35:24;;;;;;;6.28;1.20;;;29.30;99.90;;;;;;5034694;28;20117;-49
2022/08/03 04:37:53;;;;;;;2.45;1.50;;;29.30;99.90;;;;;;5034425;28;20503;-49
2022/08/03 04:40:24;;;;;;;4.50;1.27;;;29.30;99.90;;;;;;5034593;28;20029;-50
2022/08/03 04:42:54;;;;;;;2.53;1.52;;;29.30;99.90;;;;;;5034471;28;20018;-49
2022/08/03 04:45:21;;;;;;;2.10;1.40;;;29.30;99.90;;;;;;5034462;28;20420;-49
2022/08/03 04:47:47;;;;;;;4.43;1.42;;;29.30;99.90;;;;;;5034475;28;20036;-50
2022/08/03 04:50:14;;;;;;;3.80;1.33;;;29.30;99.90;;;;;;5034499;28;20051;-50
2022/08/03 04:52:40;;;;;;;2.70;1.00;;;29.30;99.90;;;;;;5033342;28;20025;-50
2022/08/03 04:55:07;;;;;;;4.95;2.25;;;29.40;99.90;;;;;;5034301;28;20083;-49
2022/08/03 04:57:32;;;;;;;3.83;1.52;;;29.30;99.90;;;;;;5034289;28;20184;-49
2022/08/03 04:59:58;;;;;;;5.43;1.35;;;29.40;99.90;;;;;;5034052;28;20541;-49
2022/08/03 05:02:24;;;;;;;3.28;1.50;;;29.40;99.90;;;;;;5034117;28;20100;-49
2022/08/03 05:04:50;;;;;;;2.30;1.50;;;29.40;99.90;;;;;;5034200;28;20025;-49
2022/08/03 05:07:16;;;;;;;3.83;1.38;;;29.40;99.90;;;;;;5032769;28;20026;-49
2022/08/03 05:09:43;;;;;;;2.80;1.45;;;29.40;99.90;;;;;;5034366;28;20028;-49
2022/08/03 05:12:09;;;;;;;9.73;1.95;;;29.50;99.90;;;;;;5034238;28;20115;-49
2022/08/03 05:14:37;;;;;;;5.75;1.55;;;29.50;99.90;;;;;;5033973;28;20028;-49
2022/08/03 05:17:06;;;;;;;3.88;1.60;;;29.50;99.90;;;;;;5033938;28;20092;-49
2022/08/03 05:19:32;;;;;;;4.10;1.27;;;29.50;99.90;;;;;;5033897;28;20029;-49
2022/08/03 05:21:58;;;;;;;6.97;1.67;;;29.50;99.90;;;;;;5033882;28;20025;-48
2022/08/03 05:24:24;;;;;;;3.65;1.55;;;29.50;99.90;;;;;;5032513;28;20022;-48
2022/08/03 05:26:50;;;;;;;2.97;1.63;;;29.50;99.90;;;;;;5033852;28;20424;-49
2022/08/03 05:29:15;;;;;;;2.78;1.30;;;29.50;99.90;;;;;;5033642;28;20030;-50
2022/08/03 05:31:41;;;;;;;5.10;1.65;;;29.50;99.90;;;;;;5033773;28;20025;-49
2022/08/03 05:34:07;;;;;;;5.15;1.73;;;29.50;99.90;;;;;;5033456;28;20033;-49
2022/08/03 05:36:33;;;;;;;4.10;1.55;;;29.50;99.90;;;;;;5033390;28;20376;-49
2022/08/03 05:38:58;;;;;;;4.55;1.48;;;29.50;99.90;;;;;;5033321;28;20065;-49
2022/08/03 05:41:24;;;;;;;3.15;1.40;;;29.60;99.90;;;;;;5033280;28;20022;-49
2022/08/03 05:43:52;;;;;;;4.38;1.55;;;29.60;99.90;;;;;;5033387;28;20094;-49
2022/08/03 05:46:19;;;;;;;4.72;1.73;;;29.60;99.90;;;;;;5033318;28;20022;-49
2022/08/03 05:48:44;;;;;;;4.22;1.73;;;29.60;99.90;;;;;;5032270;28;20096;-50
2022/08/03 05:51:11;;;;;;;1.80;1.20;;;29.60;99.90;;;;;;5033336;28;20057;-49
2022/08/03 05:53:37;;;;;;;4.22;1.75;;;29.60;99.90;;;;;;5031777;28;20030;-50
2022/08/03 05:56:03;;;;;;;3.15;1.33;;;29.60;99.90;;;;;;5032985;28;20017;-49
2022/08/03 05:58:29;;;;;;;8.70;2.78;;;29.60;99.90;;;;;;5032934;28;20043;-50
2022/08/03 06:00:55;;;;;;;5.72;2.33;;;29.60;99.90;;;;;;5032989;28;20408;-49
2022/08/03 06:03:21;;;;;;;6.45;3.00;;;29.60;99.90;;;;;;5032984;28;20029;-49
2022/08/03 06:05:46;;;;;;;6.32;3.45;;;29.60;99.90;;;;;;5032853;28;20033;-50
2022/08/03 06:08:12;;;;;;;6.25;3.47;;;29.70;99.90;;;;;;5033263;28;20522;-50
2022/08/03 06:10:38;;;;;;;5.78;3.70;;;29.70;99.90;;;;;;5033009;28;20041;-50
2022/08/03 06:13:04;;;;;;;8.20;3.60;;;29.70;99.90;;;;;;5031529;28;20029;-49
2022/08/03 06:15:32;;;;;;;8.90;3.78;;;29.70;99.90;;;;;;5032799;28;20099;-50
2022/08/03 06:17:58;;;;;;;7.53;3.50;;;29.70;99.90;;;;;;5032598;28;20025;-50
2022/08/03 06:20:24;;;;;;;5.38;2.88;;;29.70;99.90;;;;;;5032711;28;20025;-49
2022/08/03 06:22:50;;;;;;;13.88;4.35;;;29.70;99.90;;;;;;5032950;28;20100;-49
2022/08/03 06:25:16;;;;;;;11.55;5.30;;;29.70;99.90;;;;;;5032889;28;20025;-50
2022/08/03 06:27:42;;;;;;;10.77;4.38;;;29.70;99.90;;;;;;5032580;28;20116;-50
2022/08/03 06:30:10;;;;;;;7.63;4.40;;;29.70;99.90;;;;;;5032775;28;20749;-49
2022/08/03 06:32:37;;;;;;;9.32;5.32;;;29.70;99.90;;;;;;5032354;28;20389;-50
2022/08/03 06:35:05;;;;;;;7.35;4.75;;;29.70;99.90;;;;;;5031259;28;20025;-49
2022/08/03 06:37:31;;;;;;;;;;;29.70;99.90;;;;;;5032777;28;20029;-50
2022/08/03 06:39:56;;;;;;;8.50;4.72;;;29.70;99.90;;;;;;5030946;28;19905;-50
2022/08/03 06:42:22;;;;;;;7.88;4.22;;;29.70;99.90;;;;;;5032276;28;20033;-50
2022/08/03 06:44:48;;;;;;;7.68;3.95;;;29.80;99.90;;;;;;5032320;28;20037;-49
2022/08/03 06:47:13;;;;;;;9.85;4.30;;;29.70;99.90;;;;;;5032278;28;20029;-50
2022/08/03 06:49:40;;;;;;;8.27;3.90;;;29.80;99.90;;;;;;5031493;28;20133;-50
2022/08/03 06:52:06;;;;;;;10.02;3.45;;;29.80;99.90;;;;;;5032007;28;20606;-49
2022/08/03 06:54:31;;;;;;;5.88;2.75;;;29.80;99.90;;;;;;5031872;28;20470;-50
2022/08/03 06:56:57;;;;;;;8.65;3.40;;;29.80;99.90;;;;;;5031925;28;20025;-50
2022/08/03 06:59:23;;;;;;;4.35;2.95;;;29.80;99.90;;;;;;5031652;28;20033;-50
2022/08/03 07:01:49;;;;;;;11.88;3.42;;;29.80;99.90;;;;;;5031952;28;20026;-51
2022/08/03 07:04:14;;;;;;;7.43;3.30;;;29.80;99.90;;;;;;5032153;28;20095;-50
2022/08/03 07:06:40;;;;;;;7.25;3.03;;;29.80;99.90;;;;;;5030542;28;20025;-50
2022/08/03 07:09:06;;;;;;;4.57;3.08;;;29.80;99.90;;;;;;5031803;28;20101;-50
2022/08/03 07:11:32;;;;;;;4.93;2.22;;;29.80;99.90;;;;;;5031665;28;20033;-50
2022/08/03 07:13:58;;;;;;;5.70;2.45;;;29.80;99.90;;;;;;5031540;28;20025;-50
2022/08/03 07:16:23;;;;;;;5.95;2.10;;;29.80;99.90;;;;;;5031728;28;20049;-51
2022/08/03 07:18:49;;;;;;;5.43;2.30;;;29.80;99.90;;;;;;5031778;28;20048;-50
2022/08/03 07:21:15;;;;;;;2.92;2.15;;;29.80;99.90;;;;;;5031554;28;20022;-50
2022/08/03 07:23:41;;;;;;;2.88;2.03;;;29.80;99.90;;;;;;5031672;28;20036;-50
2022/08/03 07:26:07;;;;;;;5.25;2.08;;;29.80;99.90;;;;;;5031390;28;20021;-51
2022/08/03 07:28:33;;;;;;;4.57;2.00;;;29.80;99.90;;;;;;5031440;28;20075;-50
2022/08/03 07:30:58;;;;;;;3.67;1.80;;;29.80;99.90;;;;;;5031439;28;20021;-51
2022/08/03 07:33:24;;;;;;;3.15;1.70;;;29.80;99.90;;;;;;5031414;28;20030;-50
2022/08/03 07:35:50;;;;;;;3.30;1.45;;;29.80;99.90;;;;;;5031793;28;20025;-51
2022/08/03 07:38:16;;;;;;;2.40;1.75;;;29.80;99.90;;;;;;5031229;28;20029;-51
2022/08/03 07:40:42;;;;;;;2.20;1.80;;;29.80;99.90;;;;;;5031224;28;20025;-51
2022/08/03 07:43:08;;;;;;;4.45;2.53;;;29.80;99.90;;;;;;5031288;28;20359;-51
2022/08/03 07:45:33;;;;;;;3.42;2.40;;;29.90;99.90;;;;;;5029953;28;20029;-51
2022/08/03 07:47:59;;;;;;;2.65;1.95;;;29.80;99.90;;;;;;5030887;28;20148;-50
2022/08/03 07:50:26;;;;;;;3.58;2.20;;;29.80;99.90;;;;;;5029728;28;20022;-50
2022/08/03 07:52:52;;;;;;;3.22;2.00;;;29.90;99.90;;;;;;5031322;28;20037;-50
2022/08/03 07:55:21;;;;;;;4.63;2.28;;;29.80;99.90;;;;;;5031235;28;20025;-51
2022/08/03 07:57:57;;;;;;;3.90;1.98;;;29.90;99.90;;;;;;5031093;28;20062;-51
2022/08/03 08:00:23;;;;;;;2.30;1.70;;;29.90;99.90;;;;;;5031010;28;20061;-50
2022/08/03 08:02:49;;;;;;;2.40;1.88;;;29.90;99.90;;;;;;5033907;28;20389;-50
2022/08/03 08:05:14;;;;;;;3.53;2.03;;;29.90;99.90;;;;;;5035106;28;20026;-50
2022/08/03 08:07:40;;;;;;;2.38;1.67;;;29.90;99.90;;;;;;5035093;28;20049;-50
2022/08/03 08:10:08;;;;;;;2.55;1.50;;;29.90;99.90;;;;;;5034952;28;20049;-50
2022/08/03 08:12:35;;;;;;;2.80;1.55;;;29.90;99.90;;;;;;5034837;28;20100;-50
2022/08/03 08:15:01;;;;;;;2.78;2.00;;;29.90;99.90;;;;;;5034843;28;20030;-50
2022/08/03 08:17:27;;;;;;;2.70;1.60;;;29.90;99.90;;;;;;5034790;28;20018;-50
2022/08/03 08:19:53;;;;;;;1.88;1.30;;;29.90;99.90;;;;;;5034776;28;20293;-50
2022/08/03 08:22:19;;;;;;;2.08;1.45;;;29.90;99.90;;;;;;5034846;28;20049;-50
2022/08/03 08:24:47;;;;;;;4.70;1.90;;;29.90;99.90;;;;;;5034634;28;20037;-49
2022/08/03 08:27:13;;;;;;;1.88;1.30;;;29.90;99.90;;;;;;5034453;28;20489;-50
2022/08/03 08:29:39;;;;;;;3.63;1.42;;;29.90;99.90;;;;;;5050093;28;20025;-50
2022/08/03 08:32:05;;;;;;;1.90;1.20;;;30.00;99.90;;;;;;5034579;28;20397;-50
2022/08/03 08:34:30;;;;;;;3.63;1.40;;;29.90;99.90;;;;;;5033375;28;20017;-49
2022/08/03 08:36:57;;;;;;;2.08;1.30;;;30.00;99.90;;;;;;5034481;28;20028;-50
2022/08/03 08:39:23;;;;;;;2.50;1.55;;;29.90;99.90;;;;;;5034829;28;20041;-49
2022/08/03 08:41:52;;;;;;;2.05;1.10;;;30.00;99.90;;;;;;5034449;28;20457;-50
2022/08/03 08:44:18;;;;;;;2.97;1.30;;;30.00;99.90;;;;;;5034540;28;20037;-50
2022/08/03 08:46:44;;;;;;;1.40;1.10;;;29.90;99.90;;;;;;5032866;28;20588;-50
2022/08/03 08:49:12;;;;;;;3.45;1.65;;;30.00;99.90;;;;;;5034339;28;20017;-50
2022/08/03 08:51:41;;;;;;;3.75;1.50;;;30.00;99.90;;;;;;5034169;28;20022;-50
2022/08/03 08:54:08;;;;;;;1.80;1.27;;;30.00;99.90;;;;;;5032836;28;20056;-50
2022/08/03 08:56:35;;;;;;;1.10;1.00;;;30.00;99.90;;;;;;5032926;28;20512;-50
2022/08/03 08:59:01;;;;;;;2.42;1.38;;;30.00;99.90;;;;;;5034149;28;20047;-50
2022/08/03 09:01:28;;;;;;;1.30;1.10;;;30.00;99.90;;;;;;5033658;28;20468;-50
2022/08/03 09:03:54;;;;;;;1.95;1.10;;;30.00;99.90;;;;;;5034149;28;20033;-50
2022/08/03 09:06:21;;;;;;;2.85;1.20;;;30.00;99.90;;;;;;5034143;28;20049;-50
2022/08/03 09:08:47;;;;;;;3.15;1.10;;;30.00;99.90;;;;;;5033877;28;20428;-50
2022/08/03 09:11:13;;;;;;;3.63;1.20;;;30.00;99.90;;;;;;5033839;28;20083;-50
2022/08/03 09:13:39;;;;;;;2.55;1.13;;;30.00;99.90;;;;;;5033538;28;20362;-50
2022/08/03 09:16:13;;;;;;;3.22;1.30;;;30.00;99.90;;;;;;5033641;28;20406;-50
2022/08/03 09:18:41;;;;;;;3.72;1.30;;;30.00;99.90;;;;;;5033660;28;20065;-50
2022/08/03 09:21:25;;;;;;;1.45;1.00;;;30.00;99.90;;;;;;5033720;28;20029;-50
2022/08/03 09:23:59;;;;;;;3.50;1.25;;;30.00;99.90;;;;;;5033753;28;20555;-50
2022/08/03 09:26:28;;;;;;;1.77;1.05;;;30.10;99.90;;;;;;5033989;28;20026;-50
2022/08/03 09:29:07;;;;;;;2.40;1.10;;;30.10;99.90;;;;;;5033742;28;20109;-50
2022/08/03 09:31:38;;;;;;;2.53;1.30;;;30.00;99.90;;;;;;5033437;28;20137;-50
2022/08/03 09:34:06;;;;;;;2.03;1.17;;;30.10;99.90;;;;;;5033424;28;20022;-50
2022/08/03 09:36:39;;;;;;;1.95;1.48;;;30.10;99.90;;;;;;5033536;28;20049;-50
2022/08/03 09:39:11;;;;;;;2.92;1.10;;;30.10;99.90;;;;;;5033419;28;20519;-50
2022/08/03 09:41:42;;;;;;;1.52;1.13;;;30.10;99.90;;;;;;5033347;28;20033;-50
2022/08/03 09:44:08;;;;;;;2.78;1.60;;;30.10;99.90;;;;;;5031815;28;20075;-50
2022/08/03 09:46:51;;;;;;;1.15;1.05;;;30.10;99.90;;;;;;5033202;28;20014;-50
2022/08/03 09:49:17;;;;;;;4.80;1.20;;;30.20;99.90;;;;;;5033287;28;20025;-50
2022/08/03 09:51:44;;;;;;;4.82;1.02;;;30.20;99.90;;;;;;5033264;28;20359;-50
2022/08/03 09:54:09;;;;;;;4.55;1.58;;;30.20;99.90;;;;;;5033156;28;20025;-50
2022/08/03 09:56:43;;;;;;;3.05;1.60;;;30.20;99.90;;;;;;5033004;28;20267;-50
2022/08/03 09:59:10;;;;;;;3.33;1.20;;;30.20;99.90;;;;;;5032824;28;20033;-50
2022/08/03 10:01:40;;;;;;;1.60;1.20;;;30.30;99.90;;;;;;5032969;28;20040;-50
2022/08/03 10:04:12;;;;;;;1.30;1.20;;;30.30;99.90;;;;;;5032910;28;20159;-50
2022/08/03 10:06:38;;;;;;;1.85;1.00;;;30.30;99.90;;;;;;5032609;28;20057;-50
2022/08/03 10:09:12;;;;;;;2.92;1.30;;;30.30;99.90;;;;;;5032830;28;20076;-50
2022/08/03 10:11:39;;;;;;;3.30;1.00;;;30.20;99.90;;;;;;5032895;28;20017;-50
2022/08/03 10:14:10;;;;;;;1.30;1.15;;;30.30;99.90;;;;;;5032833;28;20033;-50
2022/08/03 10:16:37;;;;;;;1.60;1.20;;;30.30;99.90;;;;;;5032582;28;20030;-50
2022/08/03 10:19:05;;;;;;;0.88;0.88;;;30.30;99.90;;;;;;5031253;28;20064;-50
2022/08/03 10:21:36;;;;;;;4.63;1.75;;;30.30;99.90;;;;;;5032597;28;20470;-50
2022/08/03 10:24:04;;;;;;;2.55;1.25;;;30.30;99.90;;;;;;5031915;28;20049;-50
2022/08/03 10:26:34;;;;;;;1.30;1.20;;;30.40;99.90;;;;;;5032335;28;20071;-50
2022/08/03 10:29:10;;;;;;;4.70;1.20;;;30.30;99.90;;;;;;5032685;28;20370;-51
2022/08/03 10:31:43;;;;;;;3.57;1.50;;;30.40;99.90;;;;;;5032453;28;20021;-50
2022/08/03 10:34:18;;;;;;;3.22;1.10;;;30.40;99.90;;;;;;5030924;28;20025;-50
2022/08/03 10:36:46;;;;;;;3.95;1.75;;;30.40;99.90;;;;;;5031904;28;20500;-50
2022/08/03 10:39:13;;;;;;;3.88;1.20;;;30.50;99.90;;;;;;5032246;28;20033;-50
2022/08/03 10:41:41;;;;;;;;;;;30.50;99.90;;;;;;5032688;28;20025;-50
2022/08/03 10:44:17;;;;;;;2.75;1.25;;;30.50;99.90;;;;;;5031973;28;19952;-51
2022/08/03 10:46:45;;;;;;;1.85;1.10;;;30.50;99.90;;;;;;5030896;28;20025;-51
2022/08/03 10:49:16;;;;;;;2.83;1.25;;;30.50;99.90;;;;;;5032036;28;20026;-51
2022/08/03 10:51:46;;;;;;;2.58;1.33;;;30.50;99.90;;;;;;5032288;28;20025;-51
2022/08/03 10:57:33;;;;;;;2.35;1.25;;;30.50;99.90;;;;;;5032023;28;20432;-51
2022/08/03 10:57:44;;;;;;;5.18;2.08;;;30.60;99.90;;;;;;5031876;28;20041;-51
2022/08/03 11:00:15;;;;;;;1.50;1.40;;;30.60;99.90;;;;;;5031544;28;20061;-51
2022/08/03 11:03:05;;;;;;;2.65;1.58;;;30.60;99.90;;;;;;5046997;28;20134;-50
2022/08/03 11:05:37;;;;;;;3.53;1.80;;;30.60;99.90;;;;;;5031848;28;20032;-51
2022/08/03 11:08:26;;;;;;;1.95;1.75;;;30.60;99.90;;;;;;5031611;28;20531;-51
2022/08/03 11:10:55;;;;;;;2.72;1.85;;;30.60;99.90;;;;;;5031675;28;20083;-51
2022/08/03 11:13:25;;;;;;;3.10;2.13;;;30.70;99.90;;;;;;5031630;28;20017;-51
2022/08/03 11:15:54;;;;;;;2.65;2.05;;;30.70;99.90;;;;;;5031668;28;20021;-51
2022/08/03 11:18:20;;;;;;;6.15;2.50;;;30.60;99.90;;;;;;5031578;28;20048;-50
2022/08/03 11:20:48;;;;;;;4.13;2.40;;;30.70;99.90;;;;;;5031433;28;20074;-51
2022/08/03 11:23:16;;;;;;;6.47;2.00;;;30.70;99.90;;;;;;5031453;28;20033;-51
2022/08/03 11:26:10;;;;;;;3.00;2.00;;;30.70;99.90;;;;;;5031519;28;20030;-51
2022/08/03 11:28:40;;;;;;;3.17;2.10;;;30.70;99.90;;;;;;5031484;28;20029;-51
2022/08/03 11:31:29;;;;;;;6.18;2.20;;;30.70;99.90;;;;;;5031236;28;20031;-51
2022/08/03 11:34:12;;;;;;;3.25;2.13;;;30.70;99.90;;;;;;5023289;28;20125;-51
2022/08/03 11:37:15;;;;;;;2.75;1.88;;;30.80;99.90;;;;;;5031283;28;20032;-50
2022/08/03 11:39:44;;;;;;;3.75;1.88;;;30.70;99.90;;;;;;5031097;28;20540;-51
2022/08/03 11:42:22;;;;;;;3.85;1.85;;;30.80;99.90;;;;;;5029844;28;20040;-51
2022/08/03 11:44:53;;;;;;;1.60;1.48;;;30.80;99.90;;;;;;5031066;28;20033;-51
2022/08/03 11:47:20;;;;;;;3.05;1.70;;;30.80;99.90;;;;;;5031094;28;20481;-50
2022/08/03 11:49:47;;;;;;;3.92;1.60;;;30.90;99.90;;;;;;5031043;28;20519;-50
2022/08/03 11:52:13;;;;;;;3.10;2.25;;;30.90;99.90;;;;;;5031144;28;20034;-50
2022/08/03 11:54:39;;;;;;;3.17;1.50;;;30.90;99.90;;;;;;5031216;28;20076;-50
2022/08/03 11:57:05;;;;;;;2.60;1.80;;;30.90;99.90;;;;;;5031087;28;20381;-51
2022/08/03 11:59:32;;;;;;;4.05;1.10;;;30.90;99.90;;;;;;5030983;28;20125;-50
2022/08/03 12:02:11;;;;;;;3.80;1.65;;;30.90;99.90;;;;;;5030948;28;20024;-50
2022/08/03 12:04:57;;;;;;;3.42;1.38;;;31.00;99.90;;;;;;5030846;28;20075;-50
2022/08/03 12:07:23;;;;;;;3.83;1.73;;;31.00;99.90;;;;;;5031064;28;20017;-50
2022/08/03 12:10:07;;;;;;;2.03;1.60;;;31.00;99.90;;;;;;5030962;28;20021;-50
2022/08/03 12:12:33;;;;;;;4.78;1.58;;;31.00;99.90;;;;;;5031051;28;20104;-50
2022/08/03 12:14:59;;;;;;;4.20;1.90;;;31.00;99.90;;;;;;5031057;28;20525;-50
2022/08/03 12:17:39;;;;;;;3.05;1.48;;;31.10;99.90;;;;;;5030778;28;20413;-50
2022/08/03 12:20:08;;;;;;;2.30;1.85;;;31.00;99.90;;;;;;5031157;28;20033;-50
2022/08/03 12:22:36;;;;;;;4.05;1.90;;;31.10;99.90;;;;;;5030925;28;20036;-50
2022/08/03 12:25:06;;;;;;;7.25;1.30;;;31.10;99.90;;;;;;5031048;28;20025;-50
2022/08/03 12:27:32;;;;;;;4.07;1.60;;;31.10;99.90;;;;;;5031030;28;20032;-51
2022/08/03 12:30:00;;;;;;;2.85;1.58;;;31.10;99.90;;;;;;5030732;28;20026;-50
2022/08/03 12:32:29;;;;;;;;;;;31.10;99.90;;;;;;5031228;28;20275;-50
2022/08/03 12:34:59;;;;;;;7.15;4.43;;;31.10;99.90;;;;;;5030754;28;20352;-50
2022/08/03 12:37:25;;;;;;;2.92;1.42;;;31.10;99.90;;;;;;5030816;28;20029;-52
2022/08/03 12:39:58;;;;;;;4.60;1.17;;;31.20;99.90;;;;;;5023837;28;20037;-52
2022/08/03 12:42:35;;;;;;;2.50;1.50;;;31.20;99.90;;;;;;5016681;28;20069;-52
2022/08/03 12:45:24;;;;;;;3.67;1.33;;;31.20;99.90;;;;;;5023158;28;20565;-51
2022/08/03 12:47:53;;;;;;;2.72;1.50;;;31.20;99.90;;;;;;5031582;28;20057;-51
2022/08/03 12:50:26;;;;;;;7.63;3.22;;;31.30;99.90;;;;;;5028594;28;20021;-52
2022/08/03 12:52:51;;;;;;;4.43;1.65;;;31.40;99.90;;;;;;5014982;28;20109;-52
2022/08/03 12:55:22;;;;;;;4.43;1.45;;;31.40;99.90;;;;;;5033944;28;20120;-51
2022/08/03 12:57:48;;;;;;;4.90;1.95;;;31.50;99.90;;;;;;5018431;28;20095;-51
2022/08/03 13:00:16;;;;;;;3.20;1.30;;;31.60;99.90;;;;;;5023957;28;20049;-51
2022/08/03 13:02:43;;;;;;;3.80;1.42;;;31.60;99.90;;;;;;5019579;28;20112;-52
2022/08/03 13:05:11;;;;;;;8.23;1.50;;;31.60;99.90;;;;;;5025806;28;20478;-51
2022/08/03 13:07:44;;;;;;;4.75;1.60;;;31.70;99.90;;;;;;5025708;28;20029;-51